Aérodrome :
LOGIN :

S'inscrire | Disclaimer

   EN    FR    IT 

 










Légende :    VFR   VFR Marginal   IFR   IFR Intensif   IFR Très Intensif
Visi : 
Plafond : 
>= 8 km
>= 3000ft
5 à 8 km
1000 à 3000 ft
1500m à 5 km
500 à 1000 ft
800 à 1500m
200 à 500 ft
< 800m
< 200 ft
Symboles :   Orages  Brouillard  Fortes neiges  Fortes précipitations  Vent > 20 kt
SIGMETs :   Divers  Orages  Givrage  Turbulence  Onde Orograph.  Cendres Volcan.







- Altitude de l'aérodrome : 357 ft
- Code IATA : TUF
- Voir les cartes d'approche


LFOT - Tours

DERNIER METAR :
  • 150230Z AUTO 13003KT 4000 BR NSC M04/M05 Q1022 NOSIG

METARs EXPIRÉS :
  • 150200Z AUTO VRB03KT 4500 BR NSC M04/M04 Q1023 NOSIG
  • 150130Z AUTO 11006KT 4400 BR NSC M03/M04 Q1022 NOSIG
  • 150100Z AUTO 13004KT 4600 BR NSC M04/M05 Q1022 NOSIG
  • 150030Z AUTO 12004KT 4500 BR NSC M04/M04 Q1023 NOSIG
  • 150000Z AUTO 11004KT 4800 BR NSC M03/M04 Q1023 NOSIG

TAF TAF LFOT
Valide du 15 à 00h jusqu'au 16 à 00h UTC


142300Z 1500/1524 12003KT CAVOK
TEMPO 1500/1506 4000 BR
BECMG 1507/1509 12010KT BKN020
PROB40
TEMPO 1509/1512 -FZRA BKN012
TEMPO 1512/1520 18010G20KT 3000 RA BKN006
TEMPO 1520/1524 22012G22KT BKN008
Pas de NOTAMs connus pour ce terrain.



MET'MAP, la Météo Aéronautique d'un coup d'oeil ! - Copyright ORBIFLY Décembre 2007 - Disclaimer

ORBIFLY MET'MAP TEAM :

Programmation & Développement : Alexandra Zaïnal
Conception & Développement : Baudouin d'Aumeries
Co-Programmation & Développement : Marc-Olivier Méhu
Soutien technique & logistique : Manuel Goepfert

Contact : metmap@orbifly.com




SOURCES & CREDITS :

   NOAA